sensor_id;sensor_type;location;lat;lon;timestamp;P1;durP1;ratioP1;P2;durP2;ratioP2
14369;SDS011;7268;50.792;0.252;2024-01-11T00:00:49;4.10;;;2.78;;
14369;SDS011;7268;50.792;0.252;2024-01-11T00:03:16;2.15;;;1.95;;
14369;SDS011;7268;50.792;0.252;2024-01-11T00:05:42;2.05;;;1.52;;
14369;SDS011;7268;50.792;0.252;2024-01-11T00:08:10;3.33;;;3.05;;
14369;SDS011;7268;50.792;0.252;2024-01-11T00:10:37;2.42;;;2.15;;
14369;SDS011;7268;50.792;0.252;2024-01-11T00:13:04;6.18;;;3.47;;
14369;SDS011;7268;50.792;0.252;2024-01-11T00:15:31;3.88;;;3.28;;
14369;SDS011;7268;50.792;0.252;2024-01-11T00:17:58;3.92;;;3.63;;
14369;SDS011;7268;50.792;0.252;2024-01-11T00:20:25;3.10;;;2.92;;
14369;SDS011;7268;50.792;0.252;2024-01-11T00:22:52;4.95;;;4.53;;
14369;SDS011;7268;50.792;0.252;2024-01-11T00:25:19;2.53;;;1.98;;
14369;SDS011;7268;50.792;0.252;2024-01-11T00:27:45;4.40;;;3.78;;
14369;SDS011;7268;50.792;0.252;2024-01-11T00:30:12;2.97;;;2.78;;
14369;SDS011;7268;50.792;0.252;2024-01-11T00:32:39;4.20;;;1.90;;
14369;SDS011;7268;50.792;0.252;2024-01-11T00:35:06;4.35;;;3.45;;
14369;SDS011;7268;50.792;0.252;2024-01-11T00:37:33;4.55;;;4.13;;
14369;SDS011;7268;50.792;0.252;2024-01-11T00:40:00;3.03;;;2.80;;
14369;SDS011;7268;50.792;0.252;2024-01-11T00:42:27;4.78;;;3.97;;
14369;SDS011;7268;50.792;0.252;2024-01-11T00:44:54;4.70;;;2.33;;
14369;SDS011;7268;50.792;0.252;2024-01-11T00:47:21;2.53;;;2.30;;
14369;SDS011;7268;50.792;0.252;2024-01-11T00:49:48;2.30;;;2.13;;
14369;SDS011;7268;50.792;0.252;2024-01-11T00:52:15;2.65;;;2.45;;
14369;SDS011;7268;50.792;0.252;2024-01-11T00:54:42;3.40;;;2.80;;
14369;SDS011;7268;50.792;0.252;2024-01-11T00:57:09;4.25;;;4.03;;
14369;SDS011;7268;50.792;0.252;2024-01-11T00:59:36;3.65;;;3.35;;
14369;SDS011;7268;50.792;0.252;2024-01-11T01:02:03;2.17;;;1.98;;
14369;SDS011;7268;50.792;0.252;2024-01-11T01:04:30;3.65;;;2.38;;
14369;SDS011;7268;50.792;0.252;2024-01-11T01:06:57;2.83;;;2.42;;
14369;SDS011;7268;50.792;0.252;2024-01-11T01:09:24;3.45;;;3.15;;
14369;SDS011;7268;50.792;0.252;2024-01-11T01:11:51;2.83;;;2.63;;
14369;SDS011;7268;50.792;0.252;2024-01-11T01:14:18;3.95;;;3.38;;
14369;SDS011;7268;50.792;0.252;2024-01-11T01:16:47;5.78;;;4.90;;
14369;SDS011;7268;50.792;0.252;2024-01-11T01:19:14;3.83;;;2.15;;
14369;SDS011;7268;50.792;0.252;2024-01-11T01:21:41;8.23;;;2.95;;
14369;SDS011;7268;50.792;0.252;2024-01-11T01:24:08;7.78;;;3.25;;
14369;SDS011;7268;50.792;0.252;2024-01-11T01:26:36;2.63;;;2.42;;
14369;SDS011;7268;50.792;0.252;2024-01-11T01:29:06;2.05;;;1.92;;
14369;SDS011;7268;50.792;0.252;2024-01-11T01:31:33;4.63;;;2.53;;
14369;SDS011;7268;50.792;0.252;2024-01-11T01:34:04;3.90;;;2.47;;
14369;SDS011;7268;50.792;0.252;2024-01-11T01:36:31;2.13;;;2.03;;
14369;SDS011;7268;50.792;0.252;2024-01-11T01:38:58;6.70;;;2.53;;
14369;SDS011;7268;50.792;0.252;2024-01-11T01:41:25;4.47;;;4.18;;
14369;SDS011;7268;50.792;0.252;2024-01-11T01:43:52;2.65;;;0.90;;
14369;SDS011;7268;50.792;0.252;2024-01-11T01:46:21;3.70;;;3.47;;
14369;SDS011;7268;50.792;0.252;2024-01-11T01:48:51;3.67;;;2.55;;
14369;SDS011;7268;50.792;0.252;2024-01-11T01:51:20;5.10;;;2.45;;
14369;SDS011;7268;50.792;0.252;2024-01-11T01:53:48;2.80;;;2.50;;
14369;SDS011;7268;50.792;0.252;2024-01-11T01:56:16;2.15;;;0.95;;
14369;SDS011;7268;50.792;0.252;2024-01-11T01:58:44;1.40;;;1.08;;
14369;SDS011;7268;50.792;0.252;2024-01-11T02:01:12;9.60;;;3.03;;
14369;SDS011;7268;50.792;0.252;2024-01-11T02:03:40;4.85;;;3.15;;
14369;SDS011;7268;50.792;0.252;2024-01-11T02:06:07;3.65;;;3.45;;
14369;SDS011;7268;50.792;0.252;2024-01-11T02:08:38;2.03;;;1.48;;
14369;SDS011;7268;50.792;0.252;2024-01-11T02:11:09;3.33;;;3.03;;
14369;SDS011;7268;50.792;0.252;2024-01-11T02:13:37;2.88;;;2.70;;
14369;SDS011;7268;50.792;0.252;2024-01-11T02:16:04;2.10;;;1.73;;
14369;SDS011;7268;50.792;0.252;2024-01-11T02:18:32;2.55;;;2.35;;
14369;SDS011;7268;50.792;0.252;2024-01-11T02:20:59;3.92;;;2.83;;
14369;SDS011;7268;50.792;0.252;2024-01-11T02:23:27;5.72;;;4.35;;
14369;SDS011;7268;50.792;0.252;2024-01-11T02:28:23;4.55;;;4.22;;
14369;SDS011;7268;50.792;0.252;2024-01-11T02:30:50;3.25;;;2.92;;
14369;SDS011;7268;50.792;0.252;2024-01-11T02:33:17;4.50;;;3.03;;
14369;SDS011;7268;50.792;0.252;2024-01-11T02:35:45;3.08;;;2.88;;
14369;SDS011;7268;50.792;0.252;2024-01-11T02:38:13;3.00;;;2.55;;
14369;SDS011;7268;50.792;0.252;2024-01-11T02:40:41;8.20;;;4.07;;
14369;SDS011;7268;50.792;0.252;2024-01-11T02:45:37;1.95;;;1.17;;
14369;SDS011;7268;50.792;0.252;2024-01-11T02:48:04;3.40;;;3.10;;
14369;SDS011;7268;50.792;0.252;2024-01-11T02:50:32;5.38;;;2.72;;
14369;SDS011;7268;50.792;0.252;2024-01-11T02:52:59;5.05;;;2.67;;
14369;SDS011;7268;50.792;0.252;2024-01-11T02:55:26;3.40;;;3.03;;
14369;SDS011;7268;50.792;0.252;2024-01-11T02:57:53;5.05;;;3.65;;
14369;SDS011;7268;50.792;0.252;2024-01-11T03:00:20;2.50;;;2.28;;
14369;SDS011;7268;50.792;0.252;2024-01-11T03:02:47;3.20;;;2.75;;
14369;SDS011;7268;50.792;0.252;2024-01-11T03:05:14;4.40;;;3.92;;
14369;SDS011;7268;50.792;0.252;2024-01-11T03:07:41;3.95;;;2.47;;
14369;SDS011;7268;50.792;0.252;2024-01-11T03:10:08;3.35;;;3.10;;
14369;SDS011;7268;50.792;0.252;2024-01-11T03:12:35;3.63;;;3.33;;
14369;SDS011;7268;50.792;0.252;2024-01-11T03:15:02;5.80;;;4.20;;
14369;SDS011;7268;50.792;0.252;2024-01-11T03:17:29;1.15;;;0.70;;
14369;SDS011;7268;50.792;0.252;2024-01-11T03:19:56;8.48;;;4.35;;
14369;SDS011;7268;50.792;0.252;2024-01-11T03:22:23;10.02;;;4.28;;
14369;SDS011;7268;50.792;0.252;2024-01-11T03:24:50;3.10;;;2.88;;
14369;SDS011;7268;50.792;0.252;2024-01-11T03:27:17;3.45;;;3.15;;
14369;SDS011;7268;50.792;0.252;2024-01-11T03:29:44;5.43;;;3.40;;
14369;SDS011;7268;50.792;0.252;2024-01-11T03:32:11;4.47;;;2.55;;
14369;SDS011;7268;50.792;0.252;2024-01-11T03:34:40;5.25;;;3.45;;
14369;SDS011;7268;50.792;0.252;2024-01-11T03:37:07;7.13;;;4.45;;
14369;SDS011;7268;50.792;0.252;2024-01-11T03:39:34;5.85;;;4.75;;
14369;SDS011;7268;50.792;0.252;2024-01-11T03:42:01;3.97;;;3.45;;
14369;SDS011;7268;50.792;0.252;2024-01-11T03:46:57;3.97;;;2.65;;
14369;SDS011;7268;50.792;0.252;2024-01-11T03:49:24;5.25;;;4.95;;
14369;SDS011;7268;50.792;0.252;2024-01-11T03:51:51;3.28;;;2.92;;
14369;SDS011;7268;50.792;0.252;2024-01-11T03:54:18;6.20;;;3.45;;
14369;SDS011;7268;50.792;0.252;2024-01-11T03:56:45;3.63;;;2.17;;
14369;SDS011;7268;50.792;0.252;2024-01-11T03:59:12;3.40;;;3.20;;
14369;SDS011;7268;50.792;0.252;2024-01-11T04:01:40;5.90;;;3.50;;
14369;SDS011;7268;50.792;0.252;2024-01-11T04:04:07;2.70;;;2.40;;
14369;SDS011;7268;50.792;0.252;2024-01-11T04:06:34;4.72;;;3.42;;
14369;SDS011;7268;50.792;0.252;2024-01-11T04:09:01;9.68;;;2.80;;
14369;SDS011;7268;50.792;0.252;2024-01-11T04:11:28;7.40;;;4.20;;
14369;SDS011;7268;50.792;0.252;2024-01-11T04:13:56;3.88;;;3.58;;
14369;SDS011;7268;50.792;0.252;2024-01-11T04:16:23;4.78;;;4.30;;
14369;SDS011;7268;50.792;0.252;2024-01-11T04:18:50;2.72;;;2.53;;
14369;SDS011;7268;50.792;0.252;2024-01-11T04:21:23;7.03;;;4.97;;
14369;SDS011;7268;50.792;0.252;2024-01-11T04:23:56;4.10;;;2.53;;
14369;SDS011;7268;50.792;0.252;2024-01-11T04:26:23;5.28;;;1.83;;
14369;SDS011;7268;50.792;0.252;2024-01-11T04:28:51;4.82;;;4.18;;
14369;SDS011;7268;50.792;0.252;2024-01-11T04:31:19;4.88;;;4.32;;
14369;SDS011;7268;50.792;0.252;2024-01-11T04:33:46;5.90;;;3.83;;
14369;SDS011;7268;50.792;0.252;2024-01-11T04:36:16;5.55;;;3.78;;
14369;SDS011;7268;50.792;0.252;2024-01-11T04:38:43;4.55;;;4.05;;
14369;SDS011;7268;50.792;0.252;2024-01-11T04:41:13;5.78;;;4.45;;
14369;SDS011;7268;50.792;0.252;2024-01-11T04:43:42;5.88;;;4.00;;
14369;SDS011;7268;50.792;0.252;2024-01-11T04:48:41;3.78;;;3.50;;
14369;SDS011;7268;50.792;0.252;2024-01-11T04:51:08;8.45;;;4.53;;
14369;SDS011;7268;50.792;0.252;2024-01-11T04:53:40;8.80;;;4.60;;
14369;SDS011;7268;50.792;0.252;2024-01-11T04:56:09;4.57;;;3.78;;
14369;SDS011;7268;50.792;0.252;2024-01-11T04:58:39;1.95;;;1.60;;
14369;SDS011;7268;50.792;0.252;2024-01-11T05:01:07;3.95;;;1.60;;
14369;SDS011;7268;50.792;0.252;2024-01-11T05:03:38;2.88;;;2.65;;
14369;SDS011;7268;50.792;0.252;2024-01-11T05:06:05;3.17;;;2.95;;
14369;SDS011;7268;50.792;0.252;2024-01-11T05:08:32;4.70;;;4.28;;
14369;SDS011;7268;50.792;0.252;2024-01-11T05:11:00;4.47;;;3.22;;
14369;SDS011;7268;50.792;0.252;2024-01-11T05:13:27;6.55;;;4.25;;
14369;SDS011;7268;50.792;0.252;2024-01-11T05:15:53;7.38;;;5.47;;
14369;SDS011;7268;50.792;0.252;2024-01-11T05:18:20;6.00;;;3.08;;
14369;SDS011;7268;50.792;0.252;2024-01-11T05:20:47;4.85;;;3.63;;
14369;SDS011;7268;50.792;0.252;2024-01-11T05:23:14;3.20;;;1.58;;
14369;SDS011;7268;50.792;0.252;2024-01-11T05:25:41;4.65;;;3.28;;
14369;SDS011;7268;50.792;0.252;2024-01-11T05:28:08;3.03;;;1.92;;
14369;SDS011;7268;50.792;0.252;2024-01-11T05:30:35;3.65;;;2.30;;
14369;SDS011;7268;50.792;0.252;2024-01-11T05:33:02;1.77;;;1.55;;
14369;SDS011;7268;50.792;0.252;2024-01-11T05:35:30;9.02;;;2.10;;
14369;SDS011;7268;50.792;0.252;2024-01-11T05:37:57;5.22;;;4.53;;
14369;SDS011;7268;50.792;0.252;2024-01-11T05:40:24;6.05;;;3.08;;
14369;SDS011;7268;50.792;0.252;2024-01-11T05:42:51;3.75;;;3.08;;
14369;SDS011;7268;50.792;0.252;2024-01-11T05:45:18;1.98;;;1.73;;
14369;SDS011;7268;50.792;0.252;2024-01-11T05:47:52;7.28;;;6.68;;
14369;SDS011;7268;50.792;0.252;2024-01-11T05:50:19;5.20;;;4.32;;
14369;SDS011;7268;50.792;0.252;2024-01-11T05:52:46;5.75;;;5.00;;
14369;SDS011;7268;50.792;0.252;2024-01-11T05:55:13;6.03;;;2.97;;
14369;SDS011;7268;50.792;0.252;2024-01-11T05:57:40;4.32;;;3.95;;
14369;SDS011;7268;50.792;0.252;2024-01-11T06:00:07;7.43;;;4.60;;
14369;SDS011;7268;50.792;0.252;2024-01-11T06:02:35;6.82;;;3.38;;
14369;SDS011;7268;50.792;0.252;2024-01-11T06:05:02;5.60;;;3.72;;
14369;SDS011;7268;50.792;0.252;2024-01-11T06:07:32;5.28;;;2.88;;
14369;SDS011;7268;50.792;0.252;2024-01-11T06:09:58;4.85;;;3.53;;
14369;SDS011;7268;50.792;0.252;2024-01-11T06:12:27;10.57;;;7.45;;
14369;SDS011;7268;50.792;0.252;2024-01-11T06:14:54;4.57;;;2.60;;
14369;SDS011;7268;50.792;0.252;2024-01-11T06:17:21;6.50;;;5.00;;
14369;SDS011;7268;50.792;0.252;2024-01-11T06:19:48;11.98;;;5.97;;
14369;SDS011;7268;50.792;0.252;2024-01-11T06:22:15;5.25;;;4.80;;
14369;SDS011;7268;50.792;0.252;2024-01-11T06:24:42;5.32;;;4.82;;
14369;SDS011;7268;50.792;0.252;2024-01-11T06:27:09;8.65;;;6.55;;
14369;SDS011;7268;50.792;0.252;2024-01-11T06:29:36;3.08;;;1.73;;
14369;SDS011;7268;50.792;0.252;2024-01-11T06:32:03;3.75;;;3.45;;
14369;SDS011;7268;50.792;0.252;2024-01-11T06:34:31;3.90;;;3.65;;
14369;SDS011;7268;50.792;0.252;2024-01-11T06:36:58;6.35;;;5.15;;
14369;SDS011;7268;50.792;0.252;2024-01-11T06:39:24;3.13;;;2.83;;
14369;SDS011;7268;50.792;0.252;2024-01-11T06:41:51;4.57;;;3.70;;
14369;SDS011;7268;50.792;0.252;2024-01-11T06:44:18;4.57;;;3.55;;
14369;SDS011;7268;50.792;0.252;2024-01-11T06:46:45;8.48;;;4.22;;
14369;SDS011;7268;50.792;0.252;2024-01-11T06:49:12;4.55;;;3.20;;
14369;SDS011;7268;50.792;0.252;2024-01-11T06:51:39;5.10;;;4.60;;
14369;SDS011;7268;50.792;0.252;2024-01-11T06:54:06;8.25;;;4.03;;
14369;SDS011;7268;50.792;0.252;2024-01-11T06:56:33;6.95;;;5.43;;
14369;SDS011;7268;50.792;0.252;2024-01-11T06:59:00;6.97;;;3.70;;
14369;SDS011;7268;50.792;0.252;2024-01-11T07:01:27;4.53;;;3.47;;
14369;SDS011;7268;50.792;0.252;2024-01-11T07:03:54;4.88;;;3.38;;
14369;SDS011;7268;50.792;0.252;2024-01-11T07:06:22;5.05;;;4.63;;
14369;SDS011;7268;50.792;0.252;2024-01-11T07:08:49;5.22;;;3.95;;
14369;SDS011;7268;50.792;0.252;2024-01-11T07:11:16;5.15;;;3.10;;
14369;SDS011;7268;50.792;0.252;2024-01-11T07:13:43;5.15;;;4.25;;
14369;SDS011;7268;50.792;0.252;2024-01-11T07:16:10;4.47;;;3.30;;
14369;SDS011;7268;50.792;0.252;2024-01-11T07:18:41;9.05;;;4.63;;
14369;SDS011;7268;50.792;0.252;2024-01-11T07:21:08;3.45;;;2.35;;
14369;SDS011;7268;50.792;0.252;2024-01-11T07:23:35;4.35;;;3.38;;
14369;SDS011;7268;50.792;0.252;2024-01-11T07:26:02;8.02;;;5.57;;
14369;SDS011;7268;50.792;0.252;2024-01-11T07:28:29;4.68;;;3.30;;
14369;SDS011;7268;50.792;0.252;2024-01-11T07:30:56;5.72;;;4.13;;
14369;SDS011;7268;50.792;0.252;2024-01-11T07:33:23;12.27;;;5.97;;
14369;SDS011;7268;50.792;0.252;2024-01-11T07:35:50;4.50;;;3.15;;
14369;SDS011;7268;50.792;0.252;2024-01-11T07:38:17;7.35;;;6.53;;
14369;SDS011;7268;50.792;0.252;2024-01-11T07:40:44;6.30;;;5.13;;
14369;SDS011;7268;50.792;0.252;2024-01-11T07:43:11;7.18;;;4.20;;
14369;SDS011;7268;50.792;0.252;2024-01-11T07:45:38;5.60;;;3.63;;
14369;SDS011;7268;50.792;0.252;2024-01-11T07:48:05;5.25;;;2.95;;
14369;SDS011;7268;50.792;0.252;2024-01-11T07:50:32;4.72;;;4.15;;
14369;SDS011;7268;50.792;0.252;2024-01-11T07:53:00;3.58;;;2.80;;
14369;SDS011;7268;50.792;0.252;2024-01-11T07:55:27;8.23;;;2.40;;
14369;SDS011;7268;50.792;0.252;2024-01-11T07:57:54;4.07;;;2.10;;
14369;SDS011;7268;50.792;0.252;2024-01-11T08:00:21;7.18;;;4.07;;
14369;SDS011;7268;50.792;0.252;2024-01-11T08:02:48;8.90;;;2.65;;
14369;SDS011;7268;50.792;0.252;2024-01-11T08:05:15;5.88;;;2.97;;
14369;SDS011;7268;50.792;0.252;2024-01-11T08:07:42;4.20;;;2.72;;
14369;SDS011;7268;50.792;0.252;2024-01-11T08:10:09;6.07;;;4.45;;
14369;SDS011;7268;50.792;0.252;2024-01-11T08:12:36;3.58;;;3.08;;
14369;SDS011;7268;50.792;0.252;2024-01-11T08:15:04;7.68;;;3.05;;
14369;SDS011;7268;50.792;0.252;2024-01-11T08:17:31;6.25;;;4.20;;
14369;SDS011;7268;50.792;0.252;2024-01-11T08:19:58;7.57;;;4.30;;
14369;SDS011;7268;50.792;0.252;2024-01-11T08:22:25;4.53;;;3.10;;
14369;SDS011;7268;50.792;0.252;2024-01-11T08:24:55;8.40;;;1.85;;
14369;SDS011;7268;50.792;0.252;2024-01-11T08:27:22;3.78;;;2.83;;
14369;SDS011;7268;50.792;0.252;2024-01-11T08:29:49;8.40;;;5.00;;
14369;SDS011;7268;50.792;0.252;2024-01-11T08:32:16;7.70;;;3.17;;
14369;SDS011;7268;50.792;0.252;2024-01-11T08:37:24;4.30;;;3.63;;
14369;SDS011;7268;50.792;0.252;2024-01-11T08:39:51;4.03;;;3.08;;
14369;SDS011;7268;50.792;0.252;2024-01-11T08:42:18;6.53;;;2.17;;
14369;SDS011;7268;50.792;0.252;2024-01-11T08:44:45;4.70;;;4.07;;
14369;SDS011;7268;50.792;0.252;2024-01-11T08:49:41;9.98;;;2.88;;
14369;SDS011;7268;50.792;0.252;2024-01-11T08:52:08;1.48;;;1.13;;
14369;SDS011;7268;50.792;0.252;2024-01-11T08:54:36;4.35;;;2.67;;
14369;SDS011;7268;50.792;0.252;2024-01-11T08:57:03;4.32;;;3.03;;
14369;SDS011;7268;50.792;0.252;2024-01-11T08:59:31;3.47;;;3.17;;
14369;SDS011;7268;50.792;0.252;2024-01-11T09:01:58;6.72;;;5.25;;
14369;SDS011;7268;50.792;0.252;2024-01-11T09:04:40;7.97;;;5.55;;
14369;SDS011;7268;50.792;0.252;2024-01-11T09:07:07;5.63;;;2.53;;
14369;SDS011;7268;50.792;0.252;2024-01-11T09:09:34;5.32;;;4.43;;
14369;SDS011;7268;50.792;0.252;2024-01-11T09:12:13;7.55;;;2.33;;
14369;SDS011;7268;50.792;0.252;2024-01-11T09:14:40;5.07;;;3.83;;
14369;SDS011;7268;50.792;0.252;2024-01-11T09:17:07;4.72;;;2.42;;
14369;SDS011;7268;50.792;0.252;2024-01-11T09:19:34;8.32;;;4.38;;
14369;SDS011;7268;50.792;0.252;2024-01-11T09:22:04;7.35;;;3.33;;
14369;SDS011;7268;50.792;0.252;2024-01-11T09:24:30;7.03;;;3.92;;
14369;SDS011;7268;50.792;0.252;2024-01-11T09:27:03;5.97;;;3.42;;
14369;SDS011;7268;50.792;0.252;2024-01-11T09:29:30;4.28;;;2.55;;
14369;SDS011;7268;50.792;0.252;2024-01-11T09:31:58;6.40;;;5.47;;
14369;SDS011;7268;50.792;0.252;2024-01-11T09:34:26;5.82;;;3.13;;
14369;SDS011;7268;50.792;0.252;2024-01-11T09:36:54;6.95;;;4.13;;
14369;SDS011;7268;50.792;0.252;2024-01-11T09:39:25;8.00;;;4.85;;
14369;SDS011;7268;50.792;0.252;2024-01-11T09:41:52;9.35;;;4.07;;
14369;SDS011;7268;50.792;0.252;2024-01-11T09:44:36;7.72;;;5.00;;
14369;SDS011;7268;50.792;0.252;2024-01-11T09:47:08;5.18;;;2.15;;
14369;SDS011;7268;50.792;0.252;2024-01-11T09:49:42;8.98;;;5.85;;
14369;SDS011;7268;50.792;0.252;2024-01-11T09:52:12;6.95;;;4.72;;
14369;SDS011;7268;50.792;0.252;2024-01-11T09:54:41;11.45;;;6.40;;
14369;SDS011;7268;50.792;0.252;2024-01-11T09:57:09;11.82;;;8.20;;
14369;SDS011;7268;50.792;0.252;2024-01-11T09:59:54;15.65;;;4.32;;
14369;SDS011;7268;50.792;0.252;2024-01-11T10:02:26;7.70;;;4.20;;
14369;SDS011;7268;50.792;0.252;2024-01-11T10:04:53;9.30;;;5.22;;
14369;SDS011;7268;50.792;0.252;2024-01-11T10:07:23;7.13;;;5.13;;
14369;SDS011;7268;50.792;0.252;2024-01-11T10:09:51;8.10;;;5.00;;
14369;SDS011;7268;50.792;0.252;2024-01-11T10:12:22;12.48;;;6.15;;
14369;SDS011;7268;50.792;0.252;2024-01-11T10:14:52;6.47;;;3.58;;
14369;SDS011;7268;50.792;0.252;2024-01-11T10:17:19;7.43;;;4.45;;
14369;SDS011;7268;50.792;0.252;2024-01-11T10:19:52;12.43;;;4.63;;
14369;SDS011;7268;50.792;0.252;2024-01-11T10:22:20;6.32;;;4.63;;
14369;SDS011;7268;50.792;0.252;2024-01-11T10:24:50;6.97;;;4.55;;
14369;SDS011;7268;50.792;0.252;2024-01-11T10:27:17;11.88;;;4.88;;
14369;SDS011;7268;50.792;0.252;2024-01-11T10:29:44;10.52;;;4.43;;
14369;SDS011;7268;50.792;0.252;2024-01-11T10:32:12;6.65;;;5.13;;
14369;SDS011;7268;50.792;0.252;2024-01-11T10:34:39;14.77;;;4.93;;
14369;SDS011;7268;50.792;0.252;2024-01-11T10:37:08;10.15;;;4.97;;
14369;SDS011;7268;50.792;0.252;2024-01-11T10:39:36;8.60;;;5.05;;
14369;SDS011;7268;50.792;0.252;2024-01-11T10:42:06;10.10;;;4.60;;
14369;SDS011;7268;50.792;0.252;2024-01-11T10:44:35;12.32;;;5.32;;
14369;SDS011;7268;50.792;0.252;2024-01-11T10:47:12;11.05;;;4.45;;
14369;SDS011;7268;50.792;0.252;2024-01-11T10:49:41;11.90;;;4.88;;
14369;SDS011;7268;50.792;0.252;2024-01-11T10:52:12;9.30;;;5.60;;
14369;SDS011;7268;50.792;0.252;2024-01-11T10:54:40;14.05;;;5.50;;
14369;SDS011;7268;50.792;0.252;2024-01-11T10:57:08;9.82;;;5.30;;
14369;SDS011;7268;50.792;0.252;2024-01-11T10:59:39;6.80;;;3.45;;
14369;SDS011;7268;50.792;0.252;2024-01-11T11:02:09;7.70;;;4.88;;
14369;SDS011;7268;50.792;0.252;2024-01-11T11:04:42;16.05;;;4.75;;
14369;SDS011;7268;50.792;0.252;2024-01-11T11:07:10;9.65;;;5.10;;
14369;SDS011;7268;50.792;0.252;2024-01-11T11:09:39;11.63;;;6.45;;
14369;SDS011;7268;50.792;0.252;2024-01-11T11:12:10;7.38;;;4.65;;
14369;SDS011;7268;50.792;0.252;2024-01-11T11:14:38;9.73;;;4.72;;
14369;SDS011;7268;50.792;0.252;2024-01-11T11:17:05;11.57;;;5.45;;
14369;SDS011;7268;50.792;0.252;2024-01-11T11:19:32;8.40;;;5.40;;
14369;SDS011;7268;50.792;0.252;2024-01-11T11:21:59;12.07;;;5.13;;
14369;SDS011;7268;50.792;0.252;2024-01-11T11:24:33;9.30;;;4.70;;
14369;SDS011;7268;50.792;0.252;2024-01-11T11:27:01;7.43;;;2.90;;
14369;SDS011;7268;50.792;0.252;2024-01-11T11:29:29;11.82;;;4.30;;
14369;SDS011;7268;50.792;0.252;2024-01-11T11:31:56;9.88;;;4.97;;
14369;SDS011;7268;50.792;0.252;2024-01-11T11:37:12;10.10;;;4.55;;
14369;SDS011;7268;50.792;0.252;2024-01-11T11:39:39;10.05;;;6.70;;
14369;SDS011;7268;50.792;0.252;2024-01-11T11:42:08;6.00;;;3.50;;
14369;SDS011;7268;50.792;0.252;2024-01-11T11:47:20;6.95;;;3.55;;
14369;SDS011;7268;50.792;0.252;2024-01-11T11:50:09;7.75;;;3.83;;
14369;SDS011;7268;50.792;0.252;2024-01-11T11:52:39;6.85;;;4.13;;
14369;SDS011;7268;50.792;0.252;2024-01-11T11:55:09;8.90;;;3.45;;
14369;SDS011;7268;50.792;0.252;2024-01-11T11:57:38;7.43;;;3.95;;
14369;SDS011;7268;50.792;0.252;2024-01-11T12:00:05;7.32;;;3.80;;
14369;SDS011;7268;50.792;0.252;2024-01-11T12:02:33;5.53;;;3.78;;
14369;SDS011;7268;50.792;0.252;2024-01-11T12:05:04;7.63;;;3.45;;
14369;SDS011;7268;50.792;0.252;2024-01-11T12:07:31;9.57;;;4.18;;
14369;SDS011;7268;50.792;0.252;2024-01-11T12:09:58;4.97;;;3.00;;
14369;SDS011;7268;50.792;0.252;2024-01-11T12:12:25;4.13;;;2.63;;
14369;SDS011;7268;50.792;0.252;2024-01-11T12:14:53;9.02;;;3.08;;
14369;SDS011;7268;50.792;0.252;2024-01-11T12:17:20;7.45;;;2.03;;
14369;SDS011;7268;50.792;0.252;2024-01-11T12:19:47;4.15;;;1.48;;
14369;SDS011;7268;50.792;0.252;2024-01-11T12:22:14;3.05;;;2.15;;
14369;SDS011;7268;50.792;0.252;2024-01-11T12:24:41;4.00;;;1.10;;
14369;SDS011;7268;50.792;0.252;2024-01-11T12:27:08;3.85;;;2.13;;
14369;SDS011;7268;50.792;0.252;2024-01-11T12:29:35;3.85;;;1.73;;
14369;SDS011;7268;50.792;0.252;2024-01-11T12:32:21;3.38;;;1.98;;
14369;SDS011;7268;50.792;0.252;2024-01-11T12:34:49;3.72;;;1.52;;
14369;SDS011;7268;50.792;0.252;2024-01-11T12:37:16;4.03;;;1.75;;
14369;SDS011;7268;50.792;0.252;2024-01-11T12:39:43;4.80;;;1.85;;
14369;SDS011;7268;50.792;0.252;2024-01-11T12:42:13;1.55;;;1.33;;
14369;SDS011;7268;50.792;0.252;2024-01-11T12:44:40;7.88;;;1.45;;
14369;SDS011;7268;50.792;0.252;2024-01-11T12:47:08;1.55;;;1.33;;
14369;SDS011;7268;50.792;0.252;2024-01-11T12:49:35;2.83;;;1.35;;
14369;SDS011;7268;50.792;0.252;2024-01-11T12:52:03;5.32;;;1.55;;
14369;SDS011;7268;50.792;0.252;2024-01-11T12:54:32;2.00;;;1.40;;
14369;SDS011;7268;50.792;0.252;2024-01-11T12:57:18;1.45;;;1.15;;
14369;SDS011;7268;50.792;0.252;2024-01-11T12:59:49;1.65;;;1.20;;
14369;SDS011;7268;50.792;0.252;2024-01-11T13:02:16;1.15;;;0.90;;
14369;SDS011;7268;50.792;0.252;2024-01-11T13:04:45;7.75;;;1.45;;
14369;SDS011;7268;50.792;0.252;2024-01-11T13:07:12;1.70;;;1.25;;
14369;SDS011;7268;50.792;0.252;2024-01-11T13:09:44;3.50;;;1.30;;
14369;SDS011;7268;50.792;0.252;2024-01-11T13:12:14;6.82;;;1.88;;
14369;SDS011;7268;50.792;0.252;2024-01-11T13:14:41;3.85;;;1.88;;
14369;SDS011;7268;50.792;0.252;2024-01-11T13:17:27;2.13;;;1.98;;
14369;SDS011;7268;50.792;0.252;2024-01-11T13:19:55;1.58;;;1.17;;
14369;SDS011;7268;50.792;0.252;2024-01-11T13:22:22;4.32;;;1.83;;
14369;SDS011;7268;50.792;0.252;2024-01-11T13:24:49;7.13;;;1.95;;
14369;SDS011;7268;50.792;0.252;2024-01-11T13:27:16;2.38;;;1.42;;
14369;SDS011;7268;50.792;0.252;2024-01-11T13:29:43;2.40;;;0.80;;
14369;SDS011;7268;50.792;0.252;2024-01-11T13:32:10;9.77;;;1.27;;
14369;SDS011;7268;50.792;0.252;2024-01-11T13:34:37;3.03;;;2.78;;
14369;SDS011;7268;50.792;0.252;2024-01-11T13:37:04;1.23;;;0.68;;
14369;SDS011;7268;50.792;0.252;2024-01-11T13:39:32;1.63;;;1.45;;
14369;SDS011;7268;50.792;0.252;2024-01-11T13:41:59;1.45;;;0.98;;
14369;SDS011;7268;50.792;0.252;2024-01-11T13:44:25;1.30;;;1.20;;
14369;SDS011;7268;50.792;0.252;2024-01-11T13:46:52;0.90;;;0.68;;
14369;SDS011;7268;50.792;0.252;2024-01-11T13:49:19;3.35;;;1.30;;
14369;SDS011;7268;50.792;0.252;2024-01-11T13:51:49;1.77;;;0.95;;
14369;SDS011;7268;50.792;0.252;2024-01-11T13:54:26;2.45;;;0.65;;
14369;SDS011;7268;50.792;0.252;2024-01-11T13:56:53;1.55;;;1.45;;
14369;SDS011;7268;50.792;0.252;2024-01-11T13:59:20;1.98;;;1.27;;
14369;SDS011;7268;50.792;0.252;2024-01-11T14:01:47;2.03;;;0.30;;
14369;SDS011;7268;50.792;0.252;2024-01-11T14:04:14;1.27;;;1.00;;
14369;SDS011;7268;50.792;0.252;2024-01-11T14:06:42;0.75;;;0.73;;
14369;SDS011;7268;50.792;0.252;2024-01-11T14:09:09;2.15;;;1.98;;
14369;SDS011;7268;50.792;0.252;2024-01-11T14:11:36;2.25;;;0.98;;
14369;SDS011;7268;50.792;0.252;2024-01-11T14:14:03;1.38;;;1.27;;
14369;SDS011;7268;50.792;0.252;2024-01-11T14:16:30;1.13;;;1.05;;
14369;SDS011;7268;50.792;0.252;2024-01-11T14:18:57;1.95;;;1.58;;
14369;SDS011;7268;50.792;0.252;2024-01-11T14:21:24;4.88;;;0.93;;
14369;SDS011;7268;50.792;0.252;2024-01-11T14:23:51;0.93;;;0.90;;
14369;SDS011;7268;50.792;0.252;2024-01-11T14:26:18;2.03;;;1.85;;
14369;SDS011;7268;50.792;0.252;2024-01-11T14:28:45;3.85;;;0.90;;
14369;SDS011;7268;50.792;0.252;2024-01-11T14:31:12;0.90;;;0.20;;
14369;SDS011;7268;50.792;0.252;2024-01-11T14:33:39;1.35;;;0.98;;
14369;SDS011;7268;50.792;0.252;2024-01-11T14:36:06;0.77;;;0.65;;
14369;SDS011;7268;50.792;0.252;2024-01-11T14:38:34;1.08;;;1.00;;
14369;SDS011;7268;50.792;0.252;2024-01-11T14:41:00;0.95;;;0.95;;
14369;SDS011;7268;50.792;0.252;2024-01-11T14:43:37;0.60;;;0.57;;
14369;SDS011;7268;50.792;0.252;2024-01-11T14:46:05;20.35;;;0.40;;
14369;SDS011;7268;50.792;0.252;2024-01-11T14:48:31;0.63;;;0.50;;
14369;SDS011;7268;50.792;0.252;2024-01-11T14:50:59;0.50;;;0.22;;
14369;SDS011;7268;50.792;0.252;2024-01-11T14:53:26;0.93;;;0.47;;
14369;SDS011;7268;50.792;0.252;2024-01-11T14:55:53;0.40;;;0.10;;
14369;SDS011;7268;50.792;0.252;2024-01-11T14:58:20;0.30;;;0.05;;
14369;SDS011;7268;50.792;0.252;2024-01-11T15:00:47;1.13;;;0.30;;
14369;SDS011;7268;50.792;0.252;2024-01-11T15:03:14;1.20;;;0.03;;
14369;SDS011;7268;50.792;0.252;2024-01-11T15:05:43;0.90;;;0.65;;
14369;SDS011;7268;50.792;0.252;2024-01-11T15:08:10;0.60;;;0.30;;
14369;SDS011;7268;50.792;0.252;2024-01-11T15:10:36;0.30;;;0.28;;
14369;SDS011;7268;50.792;0.252;2024-01-11T15:13:03;0.32;;;0.15;;
14369;SDS011;7268;50.792;0.252;2024-01-11T15:15:30;0.50;;;0.47;;
14369;SDS011;7268;50.792;0.252;2024-01-11T15:17:57;0.65;;;0.10;;
14369;SDS011;7268;50.792;0.252;2024-01-11T15:20:24;2.15;;;0.70;;
14369;SDS011;7268;50.792;0.252;2024-01-11T15:22:51;0.32;;;0.10;;
14369;SDS011;7268;50.792;0.252;2024-01-11T15:25:18;0.55;;;0.22;;